createdAt,value
2019-03-03T00:01:41.741Z,9.25
2019-03-03T00:04:13.079Z,8.88
2019-03-03T00:06:42.764Z,9.30
2019-03-03T00:09:12.410Z,10.38
2019-03-03T00:11:42.015Z,6.87
2019-03-03T00:14:11.661Z,8.40
2019-03-03T00:16:41.276Z,9.45
2019-03-03T00:19:10.986Z,8.95
2019-03-03T00:21:40.656Z,8.70
2019-03-03T00:24:10.318Z,8.20
2019-03-03T00:26:39.934Z,8.15
2019-03-03T00:29:09.565Z,9.13
2019-03-03T00:31:40.429Z,6.95
2019-03-03T00:34:10.072Z,7.33
2019-03-03T00:36:59.770Z,6.65
2019-03-03T00:39:42.936Z,7.65
2019-03-03T00:42:26.431Z,6.47
2019-03-03T00:45:06.624Z,8.75
2019-03-03T00:47:37.895Z,6.05
2019-03-03T00:50:12.420Z,7.08
2019-03-03T00:52:56.066Z,6.33
2019-03-03T00:55:27.402Z,6.62
2019-03-03T00:58:04.253Z,6.22
2019-03-03T01:00:35.577Z,8.35
2019-03-03T01:03:16.078Z,7.03
2019-03-03T01:05:56.717Z,6.42
2019-03-03T01:08:28.065Z,6.17
2019-03-03T01:11:02.234Z,6.85
2019-03-03T01:13:42.517Z,7.45
2019-03-03T01:16:16.814Z,7.95
2019-03-03T01:18:59.890Z,6.97
2019-03-03T01:21:31.213Z,7.62
2019-03-03T01:24:11.570Z,6.45
2019-03-03T01:26:43.229Z,7.50
2019-03-03T01:29:12.878Z,7.95
2019-03-03T01:31:42.565Z,6.17
2019-03-03T01:34:12.200Z,7.37
2019-03-03T01:36:41.821Z,7.33
2019-03-03T01:39:11.816Z,5.35
2019-03-03T01:41:41.428Z,6.83
2019-03-03T01:44:11.069Z,6.28
2019-03-03T01:46:40.988Z,7.08
2019-03-03T01:49:10.638Z,5.62
2019-03-03T01:51:40.257Z,6.60
2019-03-03T01:54:09.905Z,6.33
2019-03-03T01:56:39.614Z,5.65
2019-03-03T01:59:09.266Z,8.00
2019-03-03T02:01:38.893Z,8.13
2019-03-03T02:04:08.535Z,9.18
2019-03-03T02:06:38.246Z,6.40
2019-03-03T02:09:10.999Z,6.67
2019-03-03T02:11:40.776Z,7.28
2019-03-03T02:14:10.489Z,7.87
2019-03-03T02:16:40.166Z,7.72
2019-03-03T02:19:09.805Z,6.33
2019-03-03T02:21:39.421Z,6.80
2019-03-03T02:24:09.142Z,7.00
2019-03-03T02:26:38.957Z,8.20
2019-03-03T02:29:08.665Z,7.12
2019-03-03T02:31:38.325Z,7.05
2019-03-03T02:34:07.940Z,7.95
2019-03-03T02:36:37.643Z,6.05
2019-03-03T02:39:12.824Z,7.92
2019-03-03T02:41:42.515Z,7.47
2019-03-03T02:44:12.157Z,6.40
2019-03-03T02:46:41.895Z,6.53
2019-03-03T02:49:11.534Z,6.70
2019-03-03T02:51:41.165Z,8.25
2019-03-03T02:54:10.870Z,10.25
2019-03-03T02:56:40.496Z,7.45
2019-03-03T02:59:10.134Z,6.78
2019-03-03T03:01:41.405Z,6.35
2019-03-03T03:04:11.116Z,8.35
2019-03-03T03:07:00.402Z,8.43
2019-03-03T03:09:31.754Z,5.75
2019-03-03T03:12:19.601Z,6.85
2019-03-03T03:14:50.959Z,7.83
2019-03-03T03:17:22.259Z,6.22
2019-03-03T03:19:59.667Z,7.50
2019-03-03T03:22:30.934Z,6.17
2019-03-03T03:25:14.069Z,7.42
2019-03-03T03:27:48.093Z,7.10
2019-03-03T03:30:35.898Z,6.80
2019-03-03T03:33:09.942Z,6.45
2019-03-03T03:35:41.221Z,6.30
2019-03-03T03:38:24.484Z,7.25
2019-03-03T03:41:13.892Z,7.08
2019-03-03T03:43:47.738Z,6.78
2019-03-03T03:46:19.025Z,5.90
2019-03-03T03:48:50.326Z,7.10
2019-03-03T03:51:33.600Z,6.80
2019-03-03T03:54:07.949Z,8.28
2019-03-03T03:56:54.918Z,7.08
2019-03-03T03:59:28.746Z,5.35
2019-03-03T04:02:02.846Z,5.72
2019-03-03T04:04:37.137Z,5.15
2019-03-03T04:07:11.220Z,7.67
2019-03-03T04:09:45.779Z,6.62
2019-03-03T04:12:33.340Z,5.58
2019-03-03T04:15:13.704Z,5.50
2019-03-03T04:17:44.960Z,4.78
2019-03-03T04:20:16.615Z,5.78
2019-03-03T04:22:53.903Z,4.10
2019-03-03T04:25:27.966Z,4.35
2019-03-03T04:27:59.234Z,4.15
2019-03-03T04:30:39.603Z,4.72
2019-03-03T04:33:10.864Z,4.10
2019-03-03T04:35:50.845Z,4.75
2019-03-03T04:38:22.111Z,3.77
2019-03-03T04:41:08.666Z,5.15
2019-03-03T04:43:48.794Z,4.08
2019-03-03T04:49:15.844Z,5.92
2019-03-03T04:52:03.515Z,4.87
2019-03-03T04:54:43.781Z,7.15
2019-03-03T04:57:24.432Z,5.33
2019-03-03T05:00:04.540Z,5.87
2019-03-03T05:02:41.782Z,4.87
2019-03-03T05:05:13.121Z,4.25
2019-03-03T05:07:46.885Z,5.00
2019-03-03T05:10:18.217Z,5.50
2019-03-03T05:12:49.525Z,5.75
2019-03-03T05:15:23.324Z,4.20
2019-03-03T05:18:03.620Z,5.25
2019-03-03T05:20:49.820Z,5.12
2019-03-03T05:23:19.518Z,4.85
2019-03-03T05:25:49.129Z,4.15
2019-03-03T05:28:18.778Z,5.65
2019-03-03T05:30:48.412Z,4.70
2019-03-03T05:33:18.068Z,4.47
2019-03-03T05:35:47.681Z,4.58
2019-03-03T05:38:17.320Z,5.08
2019-03-03T05:40:46.959Z,4.50
2019-03-03T05:43:16.620Z,5.03
2019-03-03T05:45:46.230Z,5.70
2019-03-03T05:48:15.865Z,3.62
2019-03-03T05:50:45.558Z,5.08
2019-03-03T05:53:15.201Z,4.00
2019-03-03T05:55:44.823Z,4.85
2019-03-03T05:58:14.477Z,5.50
2019-03-03T06:00:44.089Z,5.33
2019-03-03T06:03:13.817Z,6.58
2019-03-03T06:05:43.432Z,5.47
2019-03-03T06:08:13.069Z,6.05
2019-03-03T06:10:42.691Z,4.40
2019-03-03T06:13:12.331Z,4.87
2019-03-03T06:15:41.942Z,5.47
2019-03-03T06:18:11.593Z,5.60
2019-03-03T06:20:41.426Z,6.60
2019-03-03T06:23:11.529Z,4.90
2019-03-03T06:25:41.411Z,5.35
2019-03-03T06:28:11.027Z,6.65
2019-03-03T06:30:40.720Z,5.80
2019-03-03T06:33:10.380Z,6.60
2019-03-03T06:35:40.007Z,5.53
2019-03-03T06:38:09.649Z,5.85
2019-03-03T06:40:39.273Z,5.65
2019-03-03T06:43:08.921Z,4.62
2019-03-03T06:45:38.608Z,6.15
2019-03-03T06:48:08.245Z,7.05
2019-03-03T06:50:38.016Z,5.50
2019-03-03T06:53:07.694Z,6.62
2019-03-03T06:55:37.309Z,6.33
2019-03-03T06:58:07.146Z,5.10
2019-03-03T07:00:36.833Z,4.40
2019-03-03T07:03:06.495Z,4.75
2019-03-03T07:05:36.193Z,6.22
2019-03-03T07:08:06.149Z,5.55
2019-03-03T07:10:36.325Z,5.90
2019-03-03T07:13:06.501Z,7.12
2019-03-03T07:15:36.483Z,5.22
2019-03-03T07:18:06.192Z,4.83
2019-03-03T07:20:38.434Z,4.20
2019-03-03T07:23:08.283Z,6.10
2019-03-03T07:25:37.967Z,4.55
2019-03-03T07:28:07.626Z,4.65
2019-03-03T07:30:37.295Z,4.80
2019-03-03T07:33:09.194Z,5.47
2019-03-03T07:35:38.818Z,5.22
2019-03-03T07:38:08.546Z,5.20
2019-03-03T07:40:38.415Z,6.95
2019-03-03T07:43:08.209Z,5.70
2019-03-03T07:45:37.905Z,4.10
2019-03-03T07:48:07.726Z,4.30
2019-03-03T07:50:37.434Z,5.78
2019-03-03T07:53:07.277Z,5.22
2019-03-03T07:55:37.137Z,4.72
2019-03-03T07:58:07.793Z,4.20
2019-03-03T08:00:37.645Z,4.40
2019-03-03T08:03:26.738Z,4.47
2019-03-03T08:05:56.477Z,4.62
2019-03-03T08:08:26.195Z,4.85
2019-03-03T08:10:55.949Z,4.40
2019-03-03T08:13:25.794Z,4.45
2019-03-03T08:15:55.941Z,4.28
2019-03-03T08:18:25.631Z,4.17
2019-03-03T08:20:55.246Z,7.40
2019-03-03T08:23:25.616Z,4.37
2019-03-03T08:25:55.343Z,4.05
2019-03-03T08:28:25.414Z,4.50
2019-03-03T08:30:55.083Z,4.90
2019-03-03T08:33:24.873Z,5.03
2019-03-03T08:35:54.591Z,3.37
2019-03-03T08:38:24.219Z,3.87
2019-03-03T08:40:53.890Z,4.58
2019-03-03T08:43:27.882Z,5.05
2019-03-03T08:46:05.174Z,4.15
2019-03-03T08:48:42.217Z,4.90
2019-03-03T08:51:22.225Z,3.85
2019-03-03T08:53:53.533Z,4.55
2019-03-03T08:56:30.723Z,5.03
2019-03-03T08:59:02.069Z,4.30
2019-03-03T09:01:51.754Z,3.87
2019-03-03T09:04:23.117Z,4.70
2019-03-03T09:07:10.724Z,4.00
2019-03-03T09:10:00.347Z,4.73
2019-03-03T09:12:47.908Z,5.20
2019-03-03T09:15:36.017Z,4.13
2019-03-03T09:18:23.742Z,4.63
2019-03-03T09:21:03.916Z,3.20
2019-03-03T09:23:51.768Z,4.13
2019-03-03T09:26:23.158Z,5.37
2019-03-03T09:29:12.669Z,6.20
2019-03-03T09:32:00.198Z,4.03
2019-03-03T09:34:48.078Z,3.70
2019-03-03T09:37:28.400Z,5.30
2019-03-03T09:40:08.793Z,4.67
2019-03-03T09:42:32.948Z,3.90
2019-03-03T09:45:16.324Z,4.80
2019-03-03T09:47:47.792Z,6.07
2019-03-03T09:50:22.301Z,5.73
2019-03-03T09:52:56.649Z,4.10
2019-03-03T09:55:30.629Z,4.70
2019-03-03T09:58:18.742Z,5.97
2019-03-03T10:00:50.107Z,5.53
2019-03-03T10:03:25.402Z,6.07
2019-03-03T10:06:13.675Z,5.47
2019-03-03T10:08:45.048Z,5.57
2019-03-03T10:11:22.469Z,5.23
2019-03-03T10:14:10.178Z,4.47
2019-03-03T10:16:41.658Z,4.70
2019-03-03T10:19:13.046Z,5.03
2019-03-03T10:21:53.209Z,4.17
2019-03-03T10:24:30.749Z,6.87
2019-03-03T10:27:11.619Z,7.17
2019-03-03T10:29:43.353Z,5.97
2019-03-03T10:32:20.711Z,4.70
2019-03-03T10:34:51.958Z,4.57
2019-03-03T10:37:23.310Z,7.23
2019-03-03T10:39:54.869Z,6.20
2019-03-03T10:42:28.638Z,6.77
2019-03-03T10:44:59.978Z,5.77
2019-03-03T10:47:43.969Z,6.17
2019-03-03T10:50:18.872Z,6.60
2019-03-03T10:52:50.166Z,7.40
2019-03-03T10:55:38.000Z,5.90
2019-03-03T10:58:09.466Z,5.73
2019-03-03T11:00:43.781Z,5.53
2019-03-03T11:03:21.804Z,4.83
2019-03-03T11:05:53.601Z,5.27
2019-03-03T11:08:43.802Z,5.03
2019-03-03T11:11:32.655Z,5.60
2019-03-03T11:14:23.606Z,4.97
2019-03-03T11:16:56.536Z,5.77
2019-03-03T11:19:40.607Z,4.20
2019-03-03T11:22:12.438Z,5.00
2019-03-03T11:24:46.630Z,5.30
2019-03-03T11:27:33.035Z,5.83
2019-03-03T11:30:05.047Z,5.23
2019-03-03T11:32:52.826Z,4.10
2019-03-03T11:35:33.242Z,3.93
2019-03-03T11:38:07.594Z,4.17
2019-03-03T11:40:39.186Z,4.63
2019-03-03T11:43:10.864Z,5.80
2019-03-03T11:45:42.247Z,4.30
2019-03-03T11:48:16.737Z,4.23
2019-03-03T11:50:54.334Z,5.53
2019-03-03T11:53:26.009Z,5.00
2019-03-03T11:56:06.816Z,4.63
2019-03-03T11:58:40.903Z,4.60
2019-03-03T12:01:27.353Z,6.20
2019-03-03T12:03:58.716Z,4.13
2019-03-03T12:06:30.104Z,4.53
2019-03-03T12:09:10.631Z,4.30
2019-03-03T12:11:48.042Z,3.83
2019-03-03T12:14:22.109Z,5.30
2019-03-03T12:16:56.401Z,4.17
2019-03-03T12:19:33.596Z,5.13
2019-03-03T12:22:05.141Z,5.23
2019-03-03T12:24:45.644Z,4.10
2019-03-03T12:27:20.029Z,4.67
2019-03-03T12:29:57.611Z,4.83
2019-03-03T12:32:31.993Z,3.07
2019-03-03T12:35:03.525Z,4.97
2019-03-03T12:37:40.614Z,4.67
2019-03-03T12:40:29.733Z,6.67
2019-03-03T12:43:10.288Z,4.47
2019-03-03T12:45:56.602Z,5.77
2019-03-03T12:48:27.893Z,3.70
2019-03-03T12:51:02.305Z,4.57
2019-03-03T12:53:34.135Z,6.63
2019-03-03T12:56:21.502Z,3.80
2019-03-03T12:58:53.026Z,2.93
2019-03-03T13:01:33.810Z,3.73
2019-03-03T13:04:20.160Z,4.40
2019-03-03T13:07:09.662Z,3.80
2019-03-03T13:09:50.062Z,4.87
2019-03-03T13:12:29.107Z,7.07
2019-03-03T13:15:09.359Z,5.27
2019-03-03T13:17:47.966Z,3.77
2019-03-03T13:20:16.902Z,4.73
2019-03-03T13:22:51.022Z,5.50
2019-03-03T13:25:28.170Z,5.33
2019-03-03T13:28:05.511Z,5.60
2019-03-03T13:30:36.879Z,6.03
2019-03-03T13:33:14.321Z,5.43
2019-03-03T13:35:55.785Z,3.63
2019-03-03T13:38:29.758Z,4.20
2019-03-03T13:41:01.057Z,4.10
2019-03-03T13:43:30.680Z,4.03
2019-03-03T13:46:00.377Z,4.03
2019-03-03T13:48:30.002Z,4.83
2019-03-03T13:50:59.735Z,3.87
2019-03-03T13:53:29.341Z,4.00
2019-03-03T13:55:59.064Z,5.67
2019-03-03T13:58:28.832Z,3.97
2019-03-03T14:00:58.938Z,5.33
2019-03-03T14:03:28.563Z,4.43
2019-03-03T14:05:58.222Z,4.97
2019-03-03T14:08:27.912Z,4.83
2019-03-03T14:10:57.559Z,3.50
2019-03-03T14:13:27.199Z,5.37
2019-03-03T14:15:56.943Z,5.93
2019-03-03T14:18:26.577Z,4.17
2019-03-03T14:20:56.229Z,4.30
2019-03-03T14:23:25.866Z,5.47
2019-03-03T14:25:55.514Z,5.80
2019-03-03T14:28:25.153Z,4.83
2019-03-03T14:30:54.809Z,4.57
2019-03-03T14:33:24.430Z,3.43
2019-03-03T14:35:54.085Z,3.23
2019-03-03T14:38:23.714Z,4.77
2019-03-03T14:40:53.379Z,4.87
2019-03-03T14:43:23.151Z,4.27
2019-03-03T14:45:52.801Z,3.60
2019-03-03T14:48:22.434Z,3.77
2019-03-03T14:50:52.085Z,3.37
2019-03-03T14:53:21.709Z,2.93
2019-03-03T14:55:51.766Z,3.33
2019-03-03T14:58:21.373Z,5.13
2019-03-03T15:00:51.090Z,4.37
2019-03-03T15:03:20.718Z,3.93
2019-03-03T15:05:50.374Z,3.63
2019-03-03T15:08:20.006Z,3.10
2019-03-03T15:10:49.801Z,3.97
2019-03-03T15:13:19.507Z,2.70
2019-03-03T15:15:49.176Z,4.67
2019-03-03T15:18:18.866Z,4.33
2019-03-03T15:20:48.587Z,4.60
2019-03-03T15:23:18.277Z,5.03
2019-03-03T15:25:47.936Z,6.17
2019-03-03T15:28:17.712Z,5.03
2019-03-03T15:30:47.574Z,3.40
2019-03-03T15:33:17.201Z,2.33
2019-03-03T15:35:47.049Z,4.77
2019-03-03T15:38:16.814Z,3.50
2019-03-03T15:40:46.462Z,5.97
2019-03-03T15:43:16.293Z,6.97
2019-03-03T15:45:46.185Z,5.63
2019-03-03T15:48:15.916Z,5.77
2019-03-03T15:50:46.171Z,3.10
2019-03-03T15:53:15.852Z,3.50
2019-03-03T15:55:45.784Z,2.70
2019-03-03T15:58:15.534Z,2.27
2019-03-03T16:00:45.365Z,2.30
2019-03-03T16:03:15.271Z,2.10
2019-03-03T16:05:44.956Z,1.87
2019-03-03T16:08:14.839Z,3.27
2019-03-03T16:10:44.551Z,2.80
2019-03-03T16:13:14.402Z,2.17
2019-03-03T16:15:44.218Z,2.85
2019-03-03T16:18:14.027Z,2.33
2019-03-03T16:20:44.045Z,2.20
2019-03-03T16:23:13.874Z,2.73
2019-03-03T16:25:43.906Z,2.15
2019-03-03T16:28:13.575Z,3.17
2019-03-03T16:30:43.441Z,1.82
2019-03-03T16:33:20.624Z,2.92
2019-03-03T16:35:45.002Z,3.00
2019-03-03T16:38:14.665Z,1.62
2019-03-03T16:40:46.067Z,2.12
2019-03-03T16:43:15.649Z,2.42
2019-03-03T16:45:45.325Z,2.45
2019-03-03T16:48:15.117Z,2.47
2019-03-03T16:50:44.744Z,2.27
2019-03-03T16:53:14.783Z,2.50
2019-03-03T16:55:44.527Z,2.27
2019-03-03T16:58:14.441Z,2.65
2019-03-03T17:00:44.145Z,3.77
2019-03-03T17:03:13.815Z,3.10
2019-03-03T17:05:43.836Z,3.08
2019-03-03T17:08:13.494Z,3.37
2019-03-03T17:10:43.257Z,4.45
2019-03-03T17:13:12.978Z,6.05
2019-03-03T17:15:42.649Z,4.45
2019-03-03T17:18:12.346Z,3.65
2019-03-03T17:20:42.115Z,3.87
2019-03-03T17:23:11.891Z,3.17
2019-03-03T17:25:41.589Z,3.85
2019-03-03T17:28:11.263Z,3.50
2019-03-03T17:30:40.929Z,3.35
2019-03-03T17:33:10.585Z,3.20
2019-03-03T17:35:40.306Z,3.92
2019-03-03T17:38:10.029Z,4.72
2019-03-03T17:40:39.779Z,4.55
2019-03-03T17:43:09.474Z,3.83
2019-03-03T17:45:39.110Z,3.37
2019-03-03T17:48:08.772Z,2.60
2019-03-03T17:50:38.407Z,4.33
2019-03-03T17:53:08.049Z,5.83
2019-03-03T17:55:37.687Z,2.90
2019-03-03T17:58:07.327Z,2.75
2019-03-03T18:00:38.701Z,3.52
2019-03-03T18:03:08.413Z,2.52
2019-03-03T18:05:38.126Z,3.25
2019-03-03T18:08:07.769Z,3.70
2019-03-03T18:10:37.396Z,3.30
2019-03-03T18:13:08.080Z,2.47
2019-03-03T18:15:37.951Z,3.37
2019-03-03T18:18:07.806Z,3.00
2019-03-03T18:20:37.423Z,3.75
2019-03-03T18:23:07.154Z,5.10
2019-03-03T18:25:36.838Z,6.25
2019-03-03T18:28:06.567Z,4.75
2019-03-03T18:30:36.359Z,5.42
2019-03-03T18:33:25.346Z,4.95
2019-03-03T18:35:54.974Z,5.00
2019-03-03T18:38:25.906Z,3.47
2019-03-03T18:40:55.533Z,4.65
2019-03-03T18:43:25.426Z,4.97
2019-03-03T18:45:55.048Z,3.80
2019-03-03T18:48:24.758Z,2.47
2019-03-03T18:50:54.397Z,3.02
2019-03-03T18:53:24.026Z,2.30
2019-03-03T18:55:53.829Z,3.30
2019-03-03T18:58:23.461Z,6.28
2019-03-03T19:00:53.214Z,6.62
2019-03-03T19:03:22.952Z,6.40
2019-03-03T19:05:55.750Z,4.42
2019-03-03T19:08:23.815Z,3.98
2019-03-03T19:10:53.610Z,4.22
2019-03-03T19:13:23.225Z,3.00
2019-03-03T19:15:52.943Z,2.62
2019-03-03T19:18:22.634Z,3.02
2019-03-03T19:20:52.281Z,3.35
2019-03-03T19:23:21.960Z,5.15
2019-03-03T19:25:51.600Z,4.12
2019-03-03T19:28:21.249Z,3.08
2019-03-03T19:30:50.881Z,2.58
2019-03-03T19:33:26.375Z,4.58
2019-03-03T19:35:56.096Z,2.27
2019-03-03T19:38:25.778Z,6.85
2019-03-03T19:40:55.422Z,7.55
2019-03-03T19:43:25.376Z,4.42
2019-03-03T19:46:00.862Z,3.42
2019-03-03T19:48:30.647Z,4.25
2019-03-03T19:51:00.429Z,7.17
2019-03-03T19:53:30.114Z,5.30
2019-03-03T19:55:59.778Z,9.88
2019-03-03T19:58:29.396Z,5.03
2019-03-03T20:00:59.175Z,4.03
2019-03-03T20:03:28.927Z,3.42
2019-03-03T20:05:58.595Z,3.50
2019-03-03T20:08:28.219Z,5.15
2019-03-03T20:10:57.928Z,4.05
2019-03-03T20:13:27.627Z,3.85
2019-03-03T20:15:57.350Z,3.95
2019-03-03T20:18:46.527Z,3.20
2019-03-03T20:21:16.242Z,5.30
2019-03-03T20:23:45.865Z,4.22
2019-03-03T20:26:15.574Z,3.02
2019-03-03T20:28:45.271Z,2.77
2019-03-03T20:31:15.029Z,3.47
2019-03-03T20:33:44.649Z,5.42
2019-03-03T20:36:14.346Z,6.10
2019-03-03T20:38:43.909Z,3.90
2019-03-03T20:41:13.554Z,4.87
2019-03-03T20:43:43.179Z,4.17
2019-03-03T20:46:12.890Z,2.87
2019-03-03T20:48:42.517Z,3.00
2019-03-03T20:51:12.155Z,5.22
2019-03-03T20:53:41.773Z,6.60
2019-03-03T20:56:11.464Z,7.70
2019-03-03T20:58:41.054Z,6.28
2019-03-03T21:01:10.693Z,2.90
2019-03-03T21:03:40.304Z,5.05
2019-03-03T21:06:09.962Z,2.30
2019-03-03T21:08:39.586Z,3.35
2019-03-03T21:11:09.293Z,2.75
2019-03-03T21:13:38.910Z,4.45
2019-03-03T21:16:08.772Z,4.25
2019-03-03T21:18:38.392Z,3.83
2019-03-03T21:21:08.025Z,5.45
2019-03-03T21:23:37.678Z,8.50
2019-03-03T21:26:07.321Z,11.97
2019-03-03T21:28:36.938Z,6.60
2019-03-03T21:31:07.351Z,7.50
2019-03-03T21:33:36.966Z,6.05
2019-03-03T21:36:06.676Z,6.20
2019-03-03T21:38:36.286Z,8.28
2019-03-03T21:41:05.998Z,5.60
2019-03-03T21:43:35.626Z,7.42
2019-03-03T21:46:05.268Z,5.92
2019-03-03T21:48:34.886Z,5.62
2019-03-03T21:51:04.594Z,4.95
2019-03-03T21:53:34.284Z,5.60
2019-03-03T21:56:04.093Z,6.22
2019-03-03T21:58:33.705Z,6.30
2019-03-03T22:01:03.350Z,5.55
2019-03-03T22:03:32.970Z,5.22
2019-03-03T22:06:02.614Z,6.90
2019-03-03T22:08:32.233Z,6.20
2019-03-03T22:11:01.887Z,4.70
2019-03-03T22:13:31.504Z,6.92
2019-03-03T22:16:01.143Z,7.22
2019-03-03T22:18:30.757Z,6.40
2019-03-03T22:21:00.406Z,7.95
2019-03-03T22:23:30.034Z,6.35
2019-03-03T22:25:59.679Z,7.22
2019-03-03T22:28:29.293Z,6.65
2019-03-03T22:30:58.937Z,6.72
2019-03-03T22:33:28.557Z,5.55
2019-03-03T22:35:58.210Z,4.87
2019-03-03T22:38:27.824Z,6.53
2019-03-03T22:40:57.476Z,8.35
2019-03-03T22:43:27.099Z,6.50
2019-03-03T22:45:56.751Z,5.50
2019-03-03T22:48:26.437Z,5.70
2019-03-03T22:50:56.145Z,5.85
2019-03-03T22:53:25.769Z,5.95
2019-03-03T22:55:55.415Z,5.25
2019-03-03T22:58:25.028Z,4.25
2019-03-03T23:01:01.618Z,4.35
2019-03-03T23:03:51.072Z,5.70
2019-03-03T23:06:33.004Z,4.90
2019-03-03T23:09:11.377Z,5.00
2019-03-03T23:11:46.869Z,7.75
2019-03-03T23:14:37.775Z,6.45
2019-03-03T23:17:25.630Z,6.60
2019-03-03T23:19:58.338Z,6.42
2019-03-03T23:22:50.761Z,8.45
2019-03-03T23:25:51.532Z,5.70
2019-03-03T23:28:21.719Z,9.05
2019-03-03T23:30:51.328Z,5.15
2019-03-03T23:33:20.985Z,4.95
2019-03-03T23:35:50.729Z,4.97
2019-03-03T23:38:20.377Z,7.20
2019-03-03T23:40:50.071Z,4.60
2019-03-03T23:43:19.776Z,4.62
2019-03-03T23:45:49.405Z,5.85
2019-03-03T23:48:19.041Z,7.15
2019-03-03T23:50:48.654Z,16.82
2019-03-03T23:53:18.313Z,11.43
2019-03-03T23:55:47.934Z,12.60
2019-03-03T23:58:17.594Z,10.60
